Time;durP1;ratioP1;P1;durP2;ratioP2;P2;SDS_P1;SDS_P2;PMS_P1;PMS_P2;Temp;Humidity;BMP_temperature;BMP_pressure;BME280_temperature;BME280_humidity;BME280_pressure;Samples;Min_cycle;Max_cycle;Signal;HPM_P1;HPM_P2
2021/01/01 00:01:33;;;;;;;11.75;7.70;;;-0.80;99.90;;;;;;5040978;28;20077;-74
2021/01/01 00:03:58;;;;;;;14.32;7.50;;;-0.80;99.90;;;;;;5050513;28;20097;-74
2021/01/01 00:06:24;;;;;;;12.40;8.40;;;-0.90;99.90;;;;;;5043844;28;20568;-75
2021/01/01 00:08:50;;;;;;;11.18;8.15;;;-0.90;99.90;;;;;;5042057;28;20089;-74
2021/01/01 00:11:16;;;;;;;10.48;5.57;;;-0.80;99.90;;;;;;5042439;28;20152;-74
2021/01/01 00:13:42;;;;;;;8.55;5.15;;;-1.00;99.90;;;;;;5041663;28;20070;-74
2021/01/01 00:16:14;;;;;;;8.85;6.25;;;-1.00;99.90;;;;;;5045880;28;20138;-74
2021/01/01 00:18:42;;;;;;;9.27;5.82;;;-0.80;99.90;;;;;;5044091;28;20082;-74
2021/01/01 00:21:09;;;;;;;9.02;6.13;;;-1.00;99.90;;;;;;5032158;28;20120;-75
2021/01/01 00:23:35;;;;;;;9.52;6.25;;;-1.30;99.90;;;;;;5035688;28;20530;-74
2021/01/01 00:26:01;;;;;;;7.82;5.43;;;-1.40;99.90;;;;;;5035571;28;20100;-74
2021/01/01 00:28:27;;;;;;;9.13;4.82;;;-1.60;99.90;;;;;;5042570;28;20128;-74
2021/01/01 00:30:52;;;;;;;9.57;6.10;;;-1.70;99.90;;;;;;5042578;28;20108;-74
2021/01/01 00:33:18;;;;;;;9.68;6.70;;;-1.70;99.90;;;;;;5033110;28;20084;-74
2021/01/01 00:35:44;;;;;;;9.82;6.20;;;-1.70;99.90;;;;;;5040347;28;20761;-75
2021/01/01 00:38:10;;;;;;;9.37;5.50;;;-1.50;99.90;;;;;;5040507;28;20157;-74
2021/01/01 00:40:35;;;;;;;8.75;5.57;;;-1.30;99.90;;;;;;5040384;28;20514;-74
2021/01/01 00:43:01;;;;;;;7.10;4.45;;;-1.30;99.90;;;;;;5037256;28;20453;-74
2021/01/01 00:45:27;;;;;;;5.85;4.07;;;-1.50;99.90;;;;;;5039559;28;20132;-74
2021/01/01 00:47:53;;;;;;;8.80;5.50;;;-1.60;99.90;;;;;;5041661;28;20143;-74
2021/01/01 00:50:18;;;;;;;9.53;6.47;;;-1.50;99.90;;;;;;5037825;28;20077;-74
2021/01/01 00:52:44;;;;;;;5.88;4.00;;;-1.50;99.90;;;;;;5041607;28;20085;-75
2021/01/01 00:55:10;;;;;;;6.17;4.23;;;-1.80;99.90;;;;;;5038595;28;20085;-74
2021/01/01 00:57:35;;;;;;;8.70;5.50;;;-1.90;99.90;;;;;;5045499;28;20073;-74
2021/01/01 01:00:05;;;;;;;6.45;4.97;;;-1.50;99.90;;;;;;5038180;28;20211;-75
2021/01/01 01:02:31;;;;;;;12.00;7.07;;;-1.50;99.90;;;;;;5042221;28;20077;-74
2021/01/01 01:04:56;;;;;;;13.33;7.57;;;-1.50;99.90;;;;;;5038823;28;20105;-74
2021/01/01 01:07:22;;;;;;;7.70;6.18;;;-1.50;99.90;;;;;;5037354;28;20116;-74
2021/01/01 01:09:47;;;;;;;9.40;5.57;;;-1.60;99.90;;;;;;5042751;28;20085;-74
2021/01/01 01:12:13;;;;;;;6.40;4.27;;;-1.40;99.90;;;;;;5036788;28;20073;-74
2021/01/01 01:14:38;;;;;;;6.40;3.83;;;-1.30;99.90;;;;;;5040270;28;20108;-74
2021/01/01 01:17:07;;;;;;;7.90;4.63;;;-1.30;99.90;;;;;;5035114;28;20086;-74
2021/01/01 01:19:32;;;;;;;7.07;4.67;;;-1.60;99.90;;;;;;5042092;28;20493;-74
2021/01/01 01:21:58;;;;;;;7.53;4.10;;;-2.10;99.90;;;;;;5041290;28;20085;-74
2021/01/01 01:24:23;;;;;;;6.87;4.80;;;-2.10;99.90;;;;;;5039658;28;20180;-74
2021/01/01 01:26:49;;;;;;;6.50;3.70;;;-1.90;99.90;;;;;;5046693;28;20135;-74
2021/01/01 01:29:14;;;;;;;8.27;4.37;;;-1.70;99.90;;;;;;5034054;28;20109;-74
2021/01/01 01:31:40;;;;;;;9.37;4.67;;;-1.50;99.90;;;;;;5041527;28;20121;-74
2021/01/01 01:34:05;;;;;;;8.70;4.33;;;-1.30;99.90;;;;;;5035050;28;20086;-74
2021/01/01 01:36:31;;;;;;;9.40;5.33;;;-1.10;99.90;;;;;;5044120;28;20151;-74
2021/01/01 01:38:56;;;;;;;8.93;5.17;;;-1.10;99.90;;;;;;5035405;28;20073;-74
2021/01/01 01:41:22;;;;;;;5.77;4.03;;;-1.10;99.90;;;;;;5035952;28;20113;-74
2021/01/01 01:43:48;;;;;;;8.43;4.67;;;-1.30;99.90;;;;;;5041203;28;20097;-74
2021/01/01 01:46:14;;;;;;;9.07;5.10;;;-1.60;99.90;;;;;;5038548;28;20104;-74
2021/01/01 01:48:40;;;;;;;7.93;5.67;;;-1.80;99.90;;;;;;5039056;28;20433;-74
2021/01/01 01:51:07;;;;;;;10.00;5.57;;;-1.90;99.90;;;;;;5037734;28;20093;-74
2021/01/01 01:53:37;;;;;;;9.40;4.80;;;-1.90;99.90;;;;;;5032678;28;20110;-75
2021/01/01 01:56:03;;;;;;;12.37;5.37;;;-1.80;99.90;;;;;;5044198;28;20069;-74
2021/01/01 01:58:29;;;;;;;8.50;5.10;;;-1.40;99.90;;;;;;5031872;28;20070;-74
2021/01/01 02:00:57;;;;;;;11.33;5.70;;;-1.10;99.90;;;;;;5038284;28;20108;-75
2021/01/01 02:03:33;;;;;;;6.43;4.22;;;-1.30;99.90;;;;;;5040076;28;20089;-74
2021/01/01 02:06:00;;;;;;;7.93;4.60;;;-1.80;99.90;;;;;;5038579;28;20085;-74
2021/01/01 02:08:26;;;;;;;7.50;4.93;;;-2.00;99.90;;;;;;5035807;28;20070;-74
2021/01/01 02:10:54;;;;;;;9.13;4.83;;;-2.00;99.90;;;;;;5038375;28;20609;-75
2021/01/01 02:13:20;;;;;;;7.20;4.00;;;-2.00;99.90;;;;;;5027160;28;20659;-74
2021/01/01 02:15:46;;;;;;;12.70;4.63;;;-2.10;99.90;;;;;;5034513;28;20941;-74
2021/01/01 02:18:12;;;;;;;7.90;4.40;;;-2.10;99.90;;;;;;5044123;28;20171;-74
2021/01/01 02:20:37;;;;;;;8.57;4.70;;;-2.10;99.90;;;;;;5046717;28;20177;-73
2021/01/01 02:23:03;;;;;;;7.67;4.37;;;-2.10;99.90;;;;;;5033644;28;20164;-74
2021/01/01 02:25:30;;;;;;;8.63;4.30;;;-2.00;99.90;;;;;;5040199;28;20183;-74
2021/01/01 02:27:57;;;;;;;9.47;4.60;;;-2.00;99.90;;;;;;5037877;28;20093;-74
2021/01/01 02:30:23;;;;;;;7.37;4.00;;;-1.90;99.90;;;;;;5053510;28;20423;-74
2021/01/01 02:32:49;;;;;;;7.87;4.60;;;-2.00;99.90;;;;;;5039556;28;20104;-74
2021/01/01 02:35:14;;;;;;;10.60;6.13;;;-1.50;99.90;;;;;;5039189;28;20524;-75
2021/01/01 02:37:40;;;;;;;7.60;5.00;;;-1.50;99.90;;;;;;5034784;28;20531;-74
2021/01/01 02:40:06;;;;;;;8.97;5.20;;;-1.30;99.90;;;;;;5035399;28;20082;-74
2021/01/01 02:42:32;;;;;;;8.03;5.03;;;-1.30;99.90;;;;;;5035186;28;20077;-74
2021/01/01 02:44:57;;;;;;;9.80;5.50;;;-1.60;99.90;;;;;;5033597;28;20220;-74
2021/01/01 02:47:23;;;;;;;9.10;5.20;;;-1.90;99.90;;;;;;5034626;28;20148;-75
2021/01/01 02:49:48;;;;;;;7.93;4.97;;;-2.00;99.90;;;;;;5040359;28;20549;-74
2021/01/01 02:52:14;;;;;;;10.03;6.07;;;-2.00;99.90;;;;;;5039424;28;20132;-74
2021/01/01 02:54:39;;;;;;;9.90;5.97;;;-1.90;99.90;;;;;;5032396;28;20105;-74
2021/01/01 02:57:05;;;;;;;10.43;5.80;;;-2.10;99.90;;;;;;5033163;28;20126;-74
2021/01/01 02:59:30;;;;;;;10.60;5.90;;;-2.20;99.90;;;;;;5036583;28;20119;-74
2021/01/01 03:01:56;;;;;;;8.13;5.50;;;-2.20;99.90;;;;;;5034890;28;20085;-74
2021/01/01 03:04:21;;;;;;;8.50;5.93;;;-2.20;99.90;;;;;;5036827;28;20282;-74
2021/01/01 03:06:47;;;;;;;14.60;6.33;;;-2.00;99.90;;;;;;5038327;28;20148;-74
2021/01/01 03:09:13;;;;;;;7.43;5.30;;;-1.70;99.90;;;;;;5033433;28;20097;-74
2021/01/01 03:11:38;;;;;;;10.93;5.93;;;-1.30;99.90;;;;;;5035908;28;20089;-74
2021/01/01 03:14:04;;;;;;;8.57;5.43;;;-1.10;99.90;;;;;;5039151;28;20112;-74
2021/01/01 03:16:29;;;;;;;8.83;5.20;;;-1.00;99.90;;;;;;5040753;28;20081;-74
2021/01/01 03:18:55;;;;;;;7.90;4.90;;;-1.40;99.90;;;;;;5039528;28;20100;-74
2021/01/01 03:21:21;;;;;;;8.20;5.03;;;-1.50;99.90;;;;;;5035891;28;20167;-74
2021/01/01 03:23:47;;;;;;;7.70;4.57;;;-1.50;99.90;;;;;;5053376;28;20086;-74
2021/01/01 03:26:14;;;;;;;9.37;4.93;;;-1.60;99.90;;;;;;5038686;28;20073;-74
2021/01/01 03:28:40;;;;;;;8.10;4.47;;;-1.60;99.90;;;;;;5041454;28;20070;-74
2021/01/01 03:31:07;;;;;;;13.63;6.30;;;-1.40;99.90;;;;;;5053150;28;20084;-74
2021/01/01 03:33:33;;;;;;;7.33;5.03;;;-1.20;99.90;;;;;;5039125;28;20069;-74
2021/01/01 03:36:02;;;;;;;8.10;4.47;;;-1.30;99.90;;;;;;5040027;28;20449;-74
2021/01/01 03:38:29;;;;;;;7.60;4.30;;;-1.50;99.90;;;;;;5037725;28;20434;-74
2021/01/01 03:40:54;;;;;;;6.17;4.40;;;-1.30;99.90;;;;;;5037196;28;20085;-74
2021/01/01 03:43:20;;;;;;;8.63;5.03;;;-1.10;99.90;;;;;;5031511;28;20094;-75
2021/01/01 03:45:45;;;;;;;4.33;3.40;;;-1.20;99.90;;;;;;5033800;28;20152;-75
2021/01/01 03:48:11;;;;;;;5.23;3.60;;;-1.40;99.90;;;;;;5026699;28;20097;-74
2021/01/01 03:50:36;;;;;;;6.83;3.57;;;-1.50;99.90;;;;;;5038527;28;20143;-74
2021/01/01 03:53:02;;;;;;;7.60;4.30;;;-1.50;99.90;;;;;;5039962;28;20082;-75
2021/01/01 03:55:29;;;;;;;5.33;3.40;;;-1.40;99.90;;;;;;5045191;28;20093;-74
2021/01/01 03:57:55;;;;;;;7.17;4.07;;;-1.30;99.90;;;;;;5039547;28;20087;-74
2021/01/01 04:00:22;;;;;;;7.97;4.13;;;-0.90;99.90;;;;;;5034131;28;20152;-74
2021/01/01 04:02:48;;;;;;;6.03;3.80;;;-0.80;99.90;;;;;;5035711;28;20082;-74
2021/01/01 04:05:13;;;;;;;5.83;3.70;;;-0.80;99.90;;;;;;5034815;28;20105;-74
2021/01/01 04:07:39;;;;;;;6.50;3.38;;;-0.90;99.90;;;;;;5035161;28;20100;-74
2021/01/01 04:10:06;;;;;;;5.60;3.53;;;-1.00;99.90;;;;;;5031623;28;20461;-74
2021/01/01 04:12:31;;;;;;;6.47;4.13;;;-1.00;99.90;;;;;;5038858;28;20093;-74
2021/01/01 04:14:57;;;;;;;8.70;4.53;;;-0.70;99.90;;;;;;5032029;28;20098;-74
2021/01/01 04:17:22;;;;;;;17.63;6.47;;;-0.50;99.90;;;;;;5031179;28;20208;-74
2021/01/01 04:19:48;;;;;;;16.67;7.00;;;-0.80;99.90;;;;;;5038075;28;20089;-75
2021/01/01 04:22:13;;;;;;;11.63;5.07;;;-1.00;99.90;;;;;;5036431;28;20069;-74
2021/01/01 04:24:39;;;;;;;13.13;6.30;;;-1.10;99.90;;;;;;5039964;28;20436;-74
2021/01/01 04:27:04;;;;;;;8.80;4.38;;;-1.10;99.90;;;;;;5042672;28;20100;-75
2021/01/01 04:29:30;;;;;;;10.17;4.90;;;-1.00;99.90;;;;;;5037778;28;20070;-74
2021/01/01 04:31:55;;;;;;;6.70;3.70;;;-1.20;99.90;;;;;;5038277;28;20069;-74
2021/01/01 04:34:21;;;;;;;10.57;5.37;;;-1.20;99.90;;;;;;5050519;28;20487;-75
2021/01/01 04:36:46;;;;;;;11.30;5.50;;;-1.20;99.90;;;;;;5039281;28;20085;-74
2021/01/01 04:39:12;;;;;;;12.82;5.75;;;-0.90;99.90;;;;;;5038215;28;20088;-74
2021/01/01 04:41:40;;;;;;;14.03;5.20;;;-0.90;99.90;;;;;;5037753;28;20101;-75
2021/01/01 04:44:06;;;;;;;10.23;5.67;;;-0.70;99.90;;;;;;5035893;28;20569;-75
2021/01/01 04:46:32;;;;;;;11.90;5.97;;;-0.70;99.90;;;;;;5040864;28;20418;-74
2021/01/01 04:49:00;;;;;;;9.27;5.90;;;-0.90;99.90;;;;;;5041058;28;20136;-74
2021/01/01 04:51:27;;;;;;;10.63;5.53;;;-1.10;99.90;;;;;;5042882;28;20148;-74
2021/01/01 04:53:55;;;;;;;9.53;5.77;;;-0.90;99.90;;;;;;5041983;28;20215;-74
2021/01/01 04:56:20;;;;;;;20.33;8.40;;;-0.60;99.90;;;;;;5033438;28;20080;-74
2021/01/01 04:58:47;;;;;;;27.60;12.27;;;-0.70;99.90;;;;;;5038912;28;20086;-75
2021/01/01 05:01:13;;;;;;;19.25;8.18;;;-0.80;99.90;;;;;;5052153;28;20074;-75
2021/01/01 05:03:39;;;;;;;12.87;7.43;;;-0.70;99.90;;;;;;5045193;28;20135;-74
2021/01/01 05:06:04;;;;;;;12.03;6.27;;;-0.80;99.90;;;;;;5039684;28;20463;-74
2021/01/01 05:08:30;;;;;;;19.33;9.13;;;-0.70;99.90;;;;;;5034961;28;20168;-74
2021/01/01 05:10:55;;;;;;;20.30;9.43;;;-0.60;99.90;;;;;;5050287;28;20107;-75
2021/01/01 05:13:21;;;;;;;32.07;14.03;;;-0.60;99.90;;;;;;5031729;28;20131;-74
2021/01/01 05:15:48;;;;;;;24.00;11.60;;;-0.70;99.90;;;;;;5039018;28;20139;-74
2021/01/01 05:18:18;;;;;;;15.80;8.80;;;-0.70;99.90;;;;;;5053627;28;20077;-75
2021/01/01 05:20:45;;;;;;;17.10;8.57;;;-0.90;99.90;;;;;;5041379;28;20070;-74
2021/01/01 05:23:29;;;;;;;21.23;9.10;;;-0.90;99.90;;;;;;5040806;28;20084;-74
2021/01/01 05:26:14;;;;;;;24.10;11.93;;;-1.20;99.90;;;;;;5044529;28;20140;-75
2021/01/01 05:28:49;;;;;;;17.90;9.55;;;-1.40;99.90;;;;;;5039312;28;20085;-75
2021/01/01 05:31:26;;;;;;;19.13;11.45;;;-1.50;99.90;;;;;;5040916;28;20069;-74
2021/01/01 05:34:09;;;;;;;16.60;10.70;;;-1.60;99.90;;;;;;5041617;28;20085;-74
2021/01/01 05:36:40;;;;;;;16.63;8.93;;;-1.60;99.90;;;;;;5035856;28;20077;-73
2021/01/01 05:39:17;;;;;;;16.27;8.55;;;-1.60;99.90;;;;;;5037576;28;20081;-74
2021/01/01 05:41:45;;;;;;;14.17;8.40;;;-1.70;99.90;;;;;;5038060;28;20120;-74
2021/01/01 05:44:19;;;;;;;15.77;9.07;;;-1.60;99.90;;;;;;5044531;28;22091;-74
2021/01/01 05:46:56;;;;;;;16.37;9.23;;;-1.50;99.90;;;;;;5037593;28;20089;-74
2021/01/01 05:49:24;;;;;;;15.55;8.95;;;-1.50;99.90;;;;;;5040129;28;20124;-74
2021/01/01 05:52:18;;;;;;;16.53;9.63;;;-1.80;99.90;;;;;;5042062;28;20160;-74
2021/01/01 05:55:10;;;;;;;15.53;8.50;;;-1.90;99.90;;;;;;5050798;28;20251;-74
2021/01/01 05:57:36;;;;;;;15.20;9.07;;;-1.90;99.90;;;;;;5051137;28;20086;-74
2021/01/01 06:00:08;;;;;;;14.63;9.30;;;-1.80;99.90;;;;;;5045386;28;20148;-74
2021/01/01 06:02:39;;;;;;;13.23;8.43;;;-1.30;99.90;;;;;;5034802;28;20808;-74
2021/01/01 06:05:13;;;;;;;13.47;9.10;;;-1.30;99.90;;;;;;5038639;28;20132;-74
2021/01/01 06:07:40;;;;;;;12.87;8.10;;;-1.60;99.90;;;;;;5033969;28;20151;-74
2021/01/01 06:10:08;;;;;;;13.23;8.73;;;-1.70;99.90;;;;;;5036915;28;20089;-74
2021/01/01 06:12:35;;;;;;;15.13;8.43;;;-1.70;99.90;;;;;;5036034;28;21122;-75
2021/01/01 06:15:02;;;;;;;13.98;8.52;;;-1.80;99.90;;;;;;5039110;28;20089;-74
2021/01/01 06:17:50;;;;;;;16.07;9.23;;;-1.90;99.90;;;;;;5041081;28;20223;-74
2021/01/01 06:20:20;;;;;;;13.53;8.33;;;-1.70;99.90;;;;;;5044507;28;20084;-74
2021/01/01 06:23:01;;;;;;;13.90;8.47;;;-1.70;99.90;;;;;;5033265;28;20086;-75
2021/01/01 06:25:27;;;;;;;14.87;8.57;;;-1.70;99.90;;;;;;5037745;28;20086;-74
2021/01/01 06:27:53;;;;;;;17.47;8.17;;;-1.50;99.90;;;;;;5036126;28;20822;-74
2021/01/01 06:30:20;;;;;;;13.20;8.20;;;-1.60;99.90;;;;;;5036189;28;20077;-74
2021/01/01 06:32:46;;;;;;;12.30;8.00;;;-1.70;99.90;;;;;;5042414;28;20183;-75
2021/01/01 06:35:16;;;;;;;14.67;7.77;;;-1.90;99.90;;;;;;5043659;28;20212;-74
2021/01/01 06:37:43;;;;;;;15.97;9.23;;;-2.00;99.90;;;;;;5034096;28;20084;-74
2021/01/01 06:40:21;;;;;;;12.83;7.20;;;-2.20;99.90;;;;;;5036784;28;20854;-74
2021/01/01 06:42:52;;;;;;;15.63;7.03;;;-2.20;99.90;;;;;;5038403;28;20104;-74
2021/01/01 06:45:41;;;;;;;13.67;7.43;;;-1.70;99.90;;;;;;5041007;28;20115;-74
2021/01/01 06:48:13;;;;;;;11.53;7.10;;;-2.00;99.90;;;;;;5030404;28;20088;-74
2021/01/01 06:50:41;;;;;;;15.73;7.33;;;-1.80;99.90;;;;;;5032644;28;20092;-74
2021/01/01 06:53:09;;;;;;;12.87;7.53;;;-1.70;99.90;;;;;;5036119;28;20102;-74
2021/01/01 06:55:42;;;;;;;12.73;8.37;;;-1.50;99.90;;;;;;5049803;28;20136;-74
2021/01/01 06:58:09;;;;;;;12.07;7.30;;;-1.80;99.90;;;;;;5036093;28;20152;-75
2021/01/01 07:00:50;;;;;;;12.47;6.80;;;-2.20;99.90;;;;;;5039378;28;20109;-74
2021/01/01 07:03:38;;;;;;;11.27;6.50;;;-2.40;99.90;;;;;;5034398;28;20204;-74
2021/01/01 07:06:03;;;;;;;12.77;7.27;;;-2.00;99.90;;;;;;5047679;28;20149;-74
2021/01/01 07:11:12;;;;;;;10.27;6.10;;;-2.00;99.90;;;;;;5040277;28;20081;-74
2021/01/01 07:13:48;;;;;;;9.87;5.80;;;-2.00;99.90;;;;;;5039892;28;20090;-74
2021/01/01 07:16:16;;;;;;;10.07;6.77;;;-2.50;99.90;;;;;;5039416;28;20092;-74
2021/01/01 07:18:41;;;;;;;12.57;7.73;;;-2.50;99.90;;;;;;5034362;28;20086;-74
2021/01/01 07:21:13;;;;;;;13.10;6.80;;;-2.80;99.90;;;;;;5035412;28;20100;-74
2021/01/01 07:23:39;;;;;;;10.23;6.57;;;-3.10;99.90;;;;;;5036270;28;20151;-74
2021/01/01 07:26:05;;;;;;;6.50;4.43;;;-3.40;99.90;;;;;;5037215;28;20506;-74
2021/01/01 07:28:32;;;;;;;8.37;4.40;;;-3.70;99.90;;;;;;5036036;28;20478;-74
2021/01/01 07:30:58;;;;;;;7.20;5.07;;;-3.40;99.90;;;;;;5038497;28;20077;-74
2021/01/01 07:33:24;;;;;;;9.13;5.10;;;-3.10;99.90;;;;;;5051898;28;20078;-74
2021/01/01 07:35:55;;;;;;;9.13;4.97;;;-2.80;99.90;;;;;;5035980;28;20108;-74
2021/01/01 07:38:22;;;;;;;8.03;5.07;;;-2.70;99.90;;;;;;5029508;28;20117;-74
2021/01/01 07:40:48;;;;;;;8.33;4.77;;;-2.70;99.90;;;;;;5045624;28;20226;-74
2021/01/01 07:43:14;;;;;;;8.23;5.30;;;-2.70;99.90;;;;;;5039089;28;20515;-74
2021/01/01 07:45:40;;;;;;;9.90;4.93;;;-2.70;99.90;;;;;;5036382;28;20152;-74
2021/01/01 07:48:06;;;;;;;9.93;5.80;;;-2.60;99.90;;;;;;5042586;28;20120;-74
2021/01/01 07:50:32;;;;;;;8.37;4.60;;;-2.50;99.90;;;;;;5034101;28;20523;-75
2021/01/01 07:53:01;;;;;;;8.27;4.80;;;-2.30;99.90;;;;;;5032626;28;20177;-75
2021/01/01 07:55:27;;;;;;;9.40;4.80;;;-2.40;99.90;;;;;;5050205;28;21635;-74
2021/01/01 07:57:58;;;;;;;8.07;4.40;;;-2.60;99.90;;;;;;5039963;28;20077;-74
2021/01/01 08:00:28;;;;;;;6.90;4.27;;;-2.60;99.90;;;;;;5037329;28;20097;-74
2021/01/01 08:02:54;;;;;;;7.40;4.87;;;-2.50;99.90;;;;;;5043703;28;20117;-74
2021/01/01 08:05:20;;;;;;;6.53;4.67;;;-2.40;99.90;;;;;;5052932;28;20179;-74
2021/01/01 08:07:45;;;;;;;7.50;5.10;;;-2.40;99.90;;;;;;5038849;28;20132;-74
2021/01/01 08:10:11;;;;;;;8.17;4.70;;;-2.20;99.90;;;;;;5037754;28;20599;-74
2021/01/01 08:12:37;;;;;;;9.47;5.87;;;-2.10;99.90;;;;;;5039255;28;20724;-74
2021/01/01 08:15:04;;;;;;;9.83;5.43;;;-2.20;99.90;;;;;;5033097;28;20086;-74
2021/01/01 08:17:29;;;;;;;9.63;3.93;;;-2.30;99.90;;;;;;5060057;28;20085;-74
2021/01/01 08:19:58;;;;;;;6.67;4.07;;;-2.40;99.90;;;;;;5040763;28;20088;-73
2021/01/01 08:22:30;;;;;;;8.20;4.93;;;-2.50;99.90;;;;;;5033623;28;20454;-74
2021/01/01 08:24:57;;;;;;;8.53;5.63;;;-2.50;99.90;;;;;;5053969;28;20101;-73
2021/01/01 08:27:25;;;;;;;7.53;4.93;;;-2.70;99.90;;;;;;5038222;28;20096;-74
2021/01/01 08:29:53;;;;;;;6.50;3.73;;;-2.70;99.90;;;;;;5032540;28;20542;-74
2021/01/01 08:32:21;;;;;;;6.93;4.40;;;-2.70;99.90;;;;;;5036985;28;20082;-74
2021/01/01 08:34:51;;;;;;;6.77;4.97;;;-2.50;99.90;;;;;;5045851;28;20132;-73
2021/01/01 08:37:21;;;;;;;7.53;3.70;;;-2.50;99.90;;;;;;5035400;28;20078;-74
2021/01/01 08:39:47;;;;;;;6.97;3.93;;;-2.10;99.90;;;;;;5038176;28;20092;-74
2021/01/01 08:42:21;;;;;;;7.60;4.37;;;-1.80;99.90;;;;;;5044325;28;20104;-74
2021/01/01 08:44:47;;;;;;;8.13;5.25;;;-1.60;99.90;;;;;;5043589;28;20101;-74
2021/01/01 08:47:12;;;;;;;12.13;8.30;;;-1.70;99.90;;;;;;5034579;28;20169;-74
2021/01/01 08:49:38;;;;;;;10.07;6.07;;;-1.50;99.90;;;;;;5035689;28;20168;-73
2021/01/01 08:52:11;;;;;;;7.93;5.70;;;-1.30;99.90;;;;;;5052563;28;20167;-72
2021/01/01 08:54:37;;;;;;;7.43;5.13;;;-1.30;99.90;;;;;;5038844;28;20090;-74
2021/01/01 08:57:03;;;;;;;9.03;4.67;;;-1.40;99.90;;;;;;5041528;28;20085;-74
2021/01/01 08:59:30;;;;;;;7.83;4.77;;;-1.30;99.90;;;;;;5039090;28;20454;-74
2021/01/01 09:01:57;;;;;;;10.73;5.70;;;-1.20;99.90;;;;;;5040533;28;20077;-78
2021/01/01 09:04:24;;;;;;;10.20;6.23;;;-1.00;99.90;;;;;;5036233;28;20116;-73
2021/01/01 09:07:02;;;;;;;9.97;5.87;;;-1.00;99.90;;;;;;5036483;28;20168;-72
2021/01/01 09:09:32;;;;;;;12.67;7.60;;;-1.10;99.90;;;;;;5039784;28;20073;-74
2021/01/01 09:12:21;;;;;;;13.20;7.07;;;-1.10;99.90;;;;;;5040113;28;20082;-74
2021/01/01 09:14:52;;;;;;;12.17;6.33;;;-0.80;99.90;;;;;;5037949;28;20082;-74
2021/01/01 09:17:25;;;;;;;10.20;6.67;;;-0.70;99.90;;;;;;5046647;28;20118;-74
2021/01/01 09:20:02;;;;;;;9.40;6.03;;;-0.60;99.90;;;;;;5031835;28;20109;-74
2021/01/01 09:22:35;;;;;;;12.18;6.85;;;-0.40;99.90;;;;;;5031686;28;20073;-74
2021/01/01 09:25:19;;;;;;;9.13;4.80;;;-0.40;99.90;;;;;;5035729;28;20120;-74
2021/01/01 09:27:47;;;;;;;19.80;9.18;;;-0.70;99.90;;;;;;5039975;28;20085;-76
2021/01/01 09:30:15;;;;;;;16.23;8.77;;;-0.90;99.90;;;;;;5038211;28;20102;-75
2021/01/01 09:32:48;;;;;;;12.98;8.05;;;-0.70;99.90;;;;;;5036467;28;20455;-74
2021/01/01 09:35:14;;;;;;;10.90;6.63;;;-0.60;99.90;;;;;;5037733;28;20090;-75
2021/01/01 09:37:55;;;;;;;9.05;5.80;;;-0.60;99.90;;;;;;5039547;28;20154;-72
2021/01/01 09:40:23;;;;;;;8.48;5.28;;;-0.50;99.90;;;;;;5041598;28;20074;-75
2021/01/01 09:42:49;;;;;;;9.98;5.53;;;-0.40;99.90;;;;;;5031706;28;20149;-74
2021/01/01 09:45:15;;;;;;;8.73;4.70;;;-0.20;99.90;;;;;;5034211;28;20086;-74
2021/01/01 09:47:41;;;;;;;7.65;5.18;;;-0.10;99.90;;;;;;5036864;28;20122;-72
2021/01/01 09:50:07;;;;;;;7.78;4.88;;;-0.10;99.90;;;;;;5038582;28;21005;-75
2021/01/01 09:52:33;;;;;;;6.13;4.30;;;0.20;99.90;;;;;;5038863;28;20101;-77
2021/01/01 09:54:59;;;;;;;10.15;5.45;;;0.20;99.90;;;;;;5038456;28;20208;-76
2021/01/01 09:57:25;;;;;;;10.77;6.05;;;0.40;99.90;;;;;;5039577;28;20097;-75
2021/01/01 09:59:50;;;;;;;10.93;5.47;;;0.40;99.90;;;;;;5043370;28;20077;-76
2021/01/01 10:02:16;;;;;;;10.23;5.63;;;0.40;99.90;;;;;;5046917;28;20085;-75
2021/01/01 10:04:41;;;;;;;10.52;5.40;;;0.40;99.90;;;;;;5035010;28;20632;-79
2021/01/01 10:07:07;;;;;;;22.10;9.35;;;0.50;99.90;;;;;;5045249;28;20628;-78
2021/01/01 10:09:33;;;;;;;23.95;10.93;;;0.60;99.90;;;;;;5060420;28;20530;-77
2021/01/01 10:12:03;;;;;;;11.80;6.85;;;0.50;99.90;;;;;;5046041;28;20088;-78
2021/01/01 10:14:29;;;;;;;15.02;7.90;;;0.30;99.90;;;;;;5045879;28;20097;-78
2021/01/01 10:16:54;;;;;;;14.82;6.70;;;0.30;99.90;;;;;;5048719;28;20829;-78
2021/01/01 10:19:20;;;;;;;13.77;8.25;;;0.30;99.90;;;;;;5053721;28;20082;-74
2021/01/01 10:21:45;;;;;;;10.25;6.30;;;0.40;99.90;;;;;;5044309;28;20088;-77
2021/01/01 10:24:11;;;;;;;10.52;6.30;;;0.50;99.90;;;;;;5046747;28;20099;-79
2021/01/01 10:26:36;;;;;;;10.70;6.47;;;0.50;99.90;;;;;;5039071;28;20161;-78
2021/01/01 10:29:02;;;;;;;10.15;6.55;;;0.40;99.90;;;;;;5040229;28;20128;-77
2021/01/01 10:31:28;;;;;;;13.73;7.72;;;0.50;99.90;;;;;;5037886;28;20390;-74
2021/01/01 10:33:53;;;;;;;30.35;14.65;;;0.50;99.90;;;;;;5036894;28;20105;-74
2021/01/01 10:36:19;;;;;;;30.00;15.63;;;0.60;99.90;;;;;;5035796;28;20140;-74
2021/01/01 10:38:44;;;;;;;26.95;13.98;;;0.50;99.90;;;;;;5032826;28;20093;-75
2021/01/01 10:41:14;;;;;;;29.85;16.17;;;0.50;99.90;;;;;;5041152;28;20088;-73
2021/01/01 10:43:40;;;;;;;28.45;15.80;;;0.50;99.90;;;;;;5035216;28;20101;-78
2021/01/01 10:46:06;;;;;;;24.17;14.00;;;0.50;99.90;;;;;;5035428;28;20092;-77
2021/01/01 10:48:32;;;;;;;13.73;9.45;;;0.60;99.90;;;;;;5036245;28;20090;-77
2021/01/01 10:50:57;;;;;;;11.85;6.85;;;0.70;99.90;;;;;;5031762;28;20139;-77
2021/01/01 10:53:23;;;;;;;9.63;5.93;;;0.70;99.90;;;;;;5036368;28;20074;-77
2021/01/01 10:55:52;;;;;;;10.30;5.88;;;0.60;99.90;;;;;;5035291;28;20507;-77
2021/01/01 10:58:23;;;;;;;8.32;5.13;;;0.70;99.90;;;;;;5037026;28;20543;-77
2021/01/01 11:00:56;;;;;;;9.55;5.70;;;1.00;99.90;;;;;;5033328;28;20531;-77
2021/01/01 11:03:22;;;;;;;8.55;5.10;;;1.00;99.10;;;;;;5035463;28;20114;-77
2021/01/01 11:05:48;;;;;;;8.35;4.95;;;1.00;99.00;;;;;;5042157;28;20132;-76
2021/01/01 11:08:14;;;;;;;9.85;5.28;;;0.90;99.90;;;;;;5041424;28;20193;-77
2021/01/01 11:10:40;;;;;;;8.63;5.15;;;1.00;99.90;;;;;;5038609;28;20117;-77
2021/01/01 11:13:07;;;;;;;33.65;12.68;;;0.90;99.90;;;;;;5034610;28;20159;-77
2021/01/01 12:22:16;;;;;;;9.77;5.95;;;2.30;95.80;;;;;;5059148;28;20103;-74
2021/01/01 12:24:47;;;;;;;9.50;5.38;;;2.30;95.90;;;;;;5061965;28;20163;-73
2021/01/01 12:27:19;;;;;;;10.65;6.43;;;2.40;95.60;;;;;;5061876;28;20116;-72
2021/01/01 12:29:46;;;;;;;8.80;5.60;;;2.30;95.50;;;;;;5090277;28;20076;-73
2021/01/01 12:32:14;;;;;;;9.82;5.50;;;2.30;95.90;;;;;;5068941;28;20111;-73
2021/01/01 12:34:39;;;;;;;14.27;7.47;;;2.40;96.10;;;;;;5088924;28;20087;-76
2021/01/01 12:37:05;;;;;;;10.55;6.43;;;2.50;95.30;;;;;;5090042;28;20076;-75
2021/01/01 12:39:31;;;;;;;10.20;5.57;;;2.50;94.10;;;;;;5084669;28;20073;-76
2021/01/01 12:41:56;;;;;;;18.23;9.65;;;2.70;91.40;;;;;;5067248;28;20096;-76
2021/01/01 12:44:22;;;;;;;8.80;4.40;;;2.60;92.00;;;;;;5092994;28;20141;-77
2021/01/01 12:46:51;;;;;;;9.48;5.80;;;2.60;91.60;;;;;;5077081;28;20096;-77
2021/01/01 12:49:16;;;;;;;15.43;7.28;;;2.70;91.00;;;;;;5097570;28;20081;-77
2021/01/01 12:51:42;;;;;;;22.60;11.13;;;2.70;90.70;;;;;;5100920;28;20101;-75
2021/01/01 12:54:08;;;;;;;9.73;5.85;;;2.60;91.40;;;;;;5070525;28;20076;-73
2021/01/01 12:56:33;;;;;;;16.13;7.55;;;2.70;91.30;;;;;;5091135;28;20164;-74
2021/01/01 12:58:59;;;;;;;8.23;5.50;;;2.60;92.40;;;;;;5071790;28;20156;-71
2021/01/01 13:01:24;;;;;;;10.45;5.60;;;2.70;92.30;;;;;;5075970;28;20126;-75
2021/01/01 13:03:50;;;;;;;9.75;4.80;;;2.60;92.80;;;;;;5092727;28;20164;-72
2021/01/01 13:06:18;;;;;;;10.40;5.63;;;2.70;92.30;;;;;;5066634;28;20068;-73
2021/01/01 13:08:44;;;;;;;7.68;4.53;;;2.60;94.00;;;;;;5086622;28;20072;-77
2021/01/01 13:11:10;;;;;;;8.07;4.68;;;2.60;93.40;;;;;;5074268;28;20474;-75
2021/01/01 13:13:35;;;;;;;9.50;5.18;;;2.50;94.10;;;;;;5096014;28;20092;-74
2021/01/01 13:16:01;;;;;;;11.15;6.30;;;2.70;93.60;;;;;;5109914;28;20080;-78
2021/01/01 13:18:26;;;;;;;10.70;6.80;;;2.60;94.70;;;;;;5111732;28;20141;-74
2021/01/01 13:20:52;;;;;;;7.72;5.13;;;2.60;95.30;;;;;;5080940;28;20118;-78
2021/01/01 13:23:17;;;;;;;12.38;5.82;;;2.70;95.50;;;;;;5074984;28;20089;-73
2021/01/01 13:25:43;;;;;;;8.77;4.90;;;2.60;95.60;;;;;;5073793;28;20084;-73
2021/01/01 13:28:08;;;;;;;8.82;4.60;;;2.80;95.50;;;;;;5106396;28;20100;-73
2021/01/01 13:30:34;;;;;;;8.88;5.18;;;2.80;94.90;;;;;;5083222;28;20139;-73
2021/01/01 13:32:59;;;;;;;13.63;6.22;;;2.90;95.30;;;;;;5101256;28;20459;-73
2021/01/01 13:35:27;;;;;;;8.60;5.68;;;2.90;95.40;;;;;;5099038;28;20110;-73
2021/01/01 13:37:52;;;;;;;10.05;5.80;;;2.90;95.30;;;;;;5090114;28;20520;-72
2021/01/01 13:40:18;;;;;;;9.60;5.13;;;2.90;95.90;;;;;;5091549;28;20069;-72
2021/01/01 13:42:43;;;;;;;9.02;5.68;;;3.00;96.10;;;;;;5089630;28;20131;-74
2021/01/01 13:45:10;;;;;;;7.95;5.47;;;2.90;96.30;;;;;;5090205;28;20843;-73
2021/01/01 13:47:38;;;;;;;8.20;5.15;;;2.80;96.50;;;;;;5070167;28;20428;-73
2021/01/01 13:50:04;;;;;;;7.78;5.60;;;2.90;96.30;;;;;;5092598;28;21100;-73
2021/01/01 13:52:30;;;;;;;11.48;6.97;;;2.90;96.90;;;;;;5107610;28;20161;-73
2021/01/01 13:54:55;;;;;;;9.75;6.50;;;3.00;97.00;;;;;;5084773;28;20540;-73